createdAt,value
2023-05-07T00:01:22.557Z,100905.79
2023-05-07T00:03:53.429Z,100904.97
2023-05-07T00:06:24.441Z,100910.45
2023-05-07T00:08:55.124Z,100906.52
2023-05-07T00:11:25.713Z,100905.05
2023-05-07T00:13:56.574Z,100906.14
2023-05-07T00:16:27.120Z,100907.52
2023-05-07T00:18:57.678Z,100905.78
2023-05-07T00:21:28.828Z,100907.25
2023-05-07T00:23:59.527Z,100910.02
2023-05-07T00:26:29.972Z,100906.08
2023-05-07T00:29:00.949Z,100903.14
2023-05-07T00:31:31.746Z,100908.52
2023-05-07T00:34:02.365Z,100909.14
2023-05-07T00:36:32.866Z,100904.02
2023-05-07T00:39:04.810Z,100907.46
2023-05-07T00:41:35.788Z,100905.15
2023-05-07T00:44:06.345Z,100911.20
2023-05-07T00:46:37.364Z,100910.95
2023-05-07T00:49:08.847Z,100913.19
2023-05-07T00:51:39.459Z,100910.17
2023-05-07T00:54:10.036Z,100912.98
2023-05-07T00:56:40.960Z,100914.23
2023-05-07T00:59:12.691Z,100919.08
2023-05-07T01:01:43.295Z,100920.58
2023-05-07T01:04:13.882Z,100925.94
2023-05-07T01:06:46.614Z,100926.27
2023-05-07T01:09:18.676Z,100926.88
2023-05-07T01:11:49.990Z,100928.34
2023-05-07T01:14:21.620Z,100935.59
2023-05-07T01:16:52.850Z,100935.35
2023-05-07T01:19:24.305Z,100936.39
2023-05-07T01:21:57.279Z,100937.46
2023-05-07T01:24:28.077Z,100936.39
2023-05-07T01:26:58.686Z,100933.35
2023-05-07T01:29:29.501Z,100941.13
2023-05-07T01:32:01.658Z,100939.83
2023-05-07T01:34:33.641Z,100939.32
2023-05-07T01:37:04.506Z,100943.07
2023-05-07T01:39:35.505Z,100946.52
2023-05-07T01:42:06.436Z,100951.19
2023-05-07T01:44:36.960Z,100950.55
2023-05-07T01:47:08.381Z,100950.73
2023-05-07T01:49:39.102Z,100948.06
2023-05-07T01:52:10.168Z,100953.88
2023-05-07T01:54:40.749Z,100951.19
2023-05-07T01:57:11.384Z,100951.27
2023-05-07T01:59:42.448Z,100952.45
2023-05-07T02:02:13.134Z,100951.44
2023-05-07T02:04:44.901Z,100948.98
2023-05-07T02:07:16.483Z,100949.00
2023-05-07T02:09:47.247Z,100949.24
2023-05-07T02:12:18.025Z,100949.38
2023-05-07T02:14:48.625Z,100949.77
2023-05-07T02:17:19.271Z,100949.34
2023-05-07T02:19:49.847Z,100951.59
2023-05-07T02:22:20.387Z,100960.75
2023-05-07T02:24:51.264Z,100968.05
2023-05-07T02:27:21.800Z,100970.70
2023-05-07T02:29:52.519Z,100974.08
2023-05-07T02:32:24.356Z,100978.60
2023-05-07T02:34:54.984Z,100972.36
2023-05-07T02:37:25.658Z,100972.86
2023-05-07T02:39:56.484Z,100974.29
2023-05-07T02:42:27.096Z,100973.67
2023-05-07T02:44:57.662Z,100980.80
2023-05-07T02:47:29.857Z,100980.00
2023-05-07T02:50:01.260Z,100986.09
2023-05-07T02:52:31.825Z,100986.59
2023-05-07T02:55:03.747Z,100986.92
2023-05-07T02:57:34.295Z,100986.98
2023-05-07T03:00:13.983Z,100987.88
2023-05-07T03:02:46.625Z,100987.29
2023-05-07T03:05:18.146Z,100985.16
2023-05-07T03:07:48.689Z,100987.90
2023-05-07T03:10:19.707Z,100990.16
2023-05-07T03:12:50.345Z,100991.01
2023-05-07T03:15:21.525Z,100991.37
2023-05-07T03:17:52.379Z,100997.14
2023-05-07T03:20:23.808Z,101000.67
2023-05-07T03:22:54.630Z,100999.33
2023-05-07T03:25:25.264Z,101002.36
2023-05-07T03:27:55.837Z,101006.94
2023-05-07T03:30:28.147Z,101004.55
2023-05-07T03:32:58.731Z,101007.81
2023-05-07T03:35:29.357Z,101012.04
2023-05-07T03:38:00.185Z,101012.23
2023-05-07T03:40:31.405Z,101011.07
2023-05-07T03:43:03.197Z,101016.05
2023-05-07T03:45:34.522Z,101014.44
2023-05-07T03:48:12.483Z,101018.20
2023-05-07T03:50:43.151Z,101017.38
2023-05-07T03:53:13.969Z,101018.10
2023-05-07T03:55:44.834Z,101021.48
2023-05-07T03:58:16.569Z,101019.99
2023-05-07T04:00:47.315Z,101024.23
2023-05-07T04:03:25.188Z,101024.71
2023-05-07T04:05:56.021Z,101028.21
2023-05-07T04:08:27.175Z,101027.84
2023-05-07T04:10:59.031Z,101032.45
2023-05-07T04:13:31.865Z,101031.99
2023-05-07T04:16:03.377Z,101041.84
2023-05-07T04:18:34.054Z,101046.92
2023-05-07T04:21:04.708Z,101053.27
2023-05-07T04:23:35.458Z,101051.02
2023-05-07T04:26:08.125Z,101053.93
2023-05-07T04:28:44.076Z,101055.50
2023-05-07T04:31:14.877Z,101055.06
2023-05-07T04:33:45.958Z,101060.74
2023-05-07T04:36:17.237Z,101062.51
2023-05-07T04:38:52.928Z,101063.75
2023-05-07T04:41:23.725Z,101066.23
2023-05-07T04:43:54.330Z,101066.05
2023-05-07T04:46:26.215Z,101071.45
2023-05-07T04:48:57.644Z,101069.67
2023-05-07T04:51:29.062Z,101072.98
2023-05-07T04:53:59.982Z,101074.29
2023-05-07T04:56:32.496Z,101077.84
2023-05-07T04:59:03.525Z,101078.30
2023-05-07T05:01:34.269Z,101085.05
2023-05-07T05:04:05.058Z,101088.40
2023-05-07T05:06:35.644Z,101087.56
2023-05-07T05:09:07.064Z,101088.32
2023-05-07T05:11:37.794Z,101086.57
2023-05-07T05:14:08.767Z,101085.05
2023-05-07T05:16:39.420Z,101091.52
2023-05-07T05:19:10.047Z,101096.46
2023-05-07T05:21:41.335Z,101099.74
2023-05-07T05:24:13.106Z,101100.63
2023-05-07T05:26:43.790Z,101099.88
2023-05-07T05:29:14.792Z,101105.42
2023-05-07T05:31:46.174Z,101106.09
2023-05-07T05:34:16.728Z,101105.83
2023-05-07T05:36:47.296Z,101103.38
2023-05-07T05:39:18.345Z,101103.73
2023-05-07T05:41:49.046Z,101103.69
2023-05-07T05:44:20.207Z,101104.17
2023-05-07T05:46:51.510Z,101105.80
2023-05-07T05:49:22.621Z,101105.46
2023-05-07T05:51:53.546Z,101107.95
2023-05-07T05:54:25.227Z,101112.81
2023-05-07T05:56:56.581Z,101111.45
2023-05-07T05:59:27.972Z,101111.63
2023-05-07T06:01:58.692Z,101117.52
2023-05-07T06:04:29.531Z,101116.23
2023-05-07T06:07:00.671Z,101116.41
2023-05-07T06:09:31.242Z,101121.69
2023-05-07T06:12:01.730Z,101123.05
2023-05-07T06:14:33.792Z,101127.78
2023-05-07T06:17:04.909Z,101131.82
2023-05-07T06:19:36.134Z,101136.15
2023-05-07T06:22:07.697Z,101135.23
2023-05-07T06:24:38.513Z,101137.36
2023-05-07T06:27:09.521Z,101140.97
2023-05-07T06:29:40.116Z,101138.10
2023-05-07T06:32:16.361Z,101135.11
2023-05-07T06:34:47.538Z,101135.01
2023-05-07T06:37:19.003Z,101129.86
2023-05-07T06:39:59.237Z,101136.45
2023-05-07T06:42:30.845Z,101138.77
2023-05-07T06:45:03.988Z,101140.45
2023-05-07T06:47:35.800Z,101141.64
2023-05-07T06:50:06.888Z,101140.73
2023-05-07T06:52:37.667Z,101136.73
2023-05-07T06:55:10.688Z,101133.79
2023-05-07T06:57:41.344Z,101138.77
2023-05-07T07:00:13.196Z,101139.23
2023-05-07T07:02:51.976Z,101137.07
2023-05-07T07:05:24.518Z,101135.73
2023-05-07T07:07:55.109Z,101139.38
2023-05-07T07:10:26.148Z,101137.58
2023-05-07T07:12:57.425Z,101143.20
2023-05-07T07:15:28.296Z,101142.31
2023-05-07T07:20:45.621Z,101139.53
2023-05-07T07:23:17.570Z,101146.63
2023-05-07T07:25:48.383Z,101146.90
2023-05-07T07:28:19.220Z,101147.23
2023-05-07T07:30:50.821Z,101146.30
2023-05-07T07:33:21.867Z,101147.35
2023-05-07T07:35:52.444Z,101144.75
2023-05-07T07:38:23.455Z,101141.72
2023-05-07T07:40:54.030Z,101139.88
2023-05-07T07:43:24.859Z,101142.11
2023-05-07T07:45:55.942Z,101143.80
2023-05-07T07:48:26.642Z,101148.67
2023-05-07T07:50:57.920Z,101144.12
2023-05-07T07:53:28.497Z,101142.30
2023-05-07T07:55:59.880Z,101137.73
2023-05-07T07:58:32.789Z,101143.39
2023-05-07T08:01:04.422Z,101139.98
2023-05-07T08:03:35.044Z,101144.08
2023-05-07T08:06:06.402Z,101148.93
2023-05-07T08:08:37.418Z,101144.84
2023-05-07T08:11:08.106Z,101144.91
2023-05-07T08:13:40.329Z,101145.91
2023-05-07T08:16:11.320Z,101148.64
2023-05-07T08:18:41.975Z,101143.84
2023-05-07T08:21:12.993Z,101140.47
2023-05-07T08:23:43.670Z,101144.41
2023-05-07T08:26:14.434Z,101143.73
2023-05-07T08:28:45.149Z,101145.05
2023-05-07T08:31:15.998Z,101148.41
2023-05-07T08:33:48.119Z,101145.59
2023-05-07T08:36:20.401Z,101150.94
2023-05-07T08:38:51.204Z,101151.70
2023-05-07T08:41:22.018Z,101149.48
2023-05-07T08:43:53.428Z,101157.14
2023-05-07T08:46:24.345Z,101158.12
2023-05-07T08:48:57.759Z,101161.33
2023-05-07T08:51:28.372Z,101157.05
2023-05-07T08:54:00.158Z,101153.57
2023-05-07T08:56:33.698Z,101152.39
2023-05-07T08:59:04.878Z,101150.95
2023-05-07T09:01:37.060Z,101151.23
2023-05-07T09:04:08.258Z,101156.61
2023-05-07T09:06:43.093Z,101148.14
2023-05-07T09:09:16.773Z,101153.63
2023-05-07T09:11:47.327Z,101150.38
2023-05-07T09:14:18.828Z,101157.44
2023-05-07T09:16:49.916Z,101161.36
2023-05-07T09:19:24.437Z,101154.77
2023-05-07T09:22:02.208Z,101159.26
2023-05-07T09:24:38.695Z,101172.67
2023-05-07T09:27:11.794Z,101178.88
2023-05-07T09:29:42.359Z,101181.63
2023-05-07T09:32:13.161Z,101181.52
2023-05-07T09:34:44.023Z,101179.12
2023-05-07T09:37:15.826Z,101169.93
2023-05-07T09:39:47.762Z,101168.84
2023-05-07T09:42:25.079Z,101170.34
2023-05-07T09:44:56.173Z,101172.48
2023-05-07T09:47:34.062Z,101160.67
2023-05-07T09:50:08.373Z,101167.67
2023-05-07T09:52:40.852Z,101172.46
2023-05-07T09:55:13.334Z,101174.92
2023-05-07T09:57:44.277Z,101174.25
2023-05-07T10:00:16.606Z,101163.84
2023-05-07T10:02:54.204Z,101160.09
2023-05-07T10:05:34.030Z,101167.37
2023-05-07T10:08:05.821Z,101163.09
2023-05-07T10:10:37.943Z,101166.40
2023-05-07T10:13:12.004Z,101169.92
2023-05-07T10:15:45.191Z,101161.70
2023-05-07T10:18:16.311Z,101165.68
2023-05-07T10:20:49.448Z,101161.19
2023-05-07T10:23:25.046Z,101159.91
2023-05-07T10:26:01.043Z,101160.12
2023-05-07T10:28:36.668Z,101166.44
2023-05-07T10:31:12.877Z,101170.87
2023-05-07T10:33:47.678Z,101165.63
2023-05-07T10:36:19.354Z,101166.08
2023-05-07T10:38:50.476Z,101165.98
2023-05-07T10:41:22.289Z,101162.32
2023-05-07T10:43:53.786Z,101167.36
2023-05-07T10:46:28.760Z,101168.08
2023-05-07T10:49:22.802Z,101163.05
2023-05-07T10:52:15.748Z,101160.79
2023-05-07T10:55:11.773Z,101162.91
2023-05-07T10:57:42.684Z,101164.23
2023-05-07T11:00:46.024Z,101159.10
2023-05-07T11:03:23.463Z,101153.94
2023-05-07T11:06:14.106Z,101151.91
2023-05-07T11:08:58.662Z,101153.50
2023-05-07T11:11:52.435Z,101158.38
2023-05-07T11:14:46.887Z,101158.45
2023-05-07T11:17:21.921Z,101163.01
2023-05-07T11:20:01.020Z,101167.53
2023-05-07T11:22:49.243Z,101164.81
2023-05-07T11:25:29.761Z,101165.60
2023-05-07T11:28:11.375Z,101162.01
2023-05-07T11:30:46.315Z,101163.44
2023-05-07T11:33:21.092Z,101153.79
2023-05-07T11:35:52.895Z,101155.39
2023-05-07T11:38:24.379Z,101162.61
2023-05-07T11:40:55.557Z,101170.64
2023-05-07T11:43:26.142Z,101164.80
2023-05-07T11:45:56.991Z,101164.09
2023-05-07T11:48:27.587Z,101165.90
2023-05-07T11:51:03.728Z,101161.73
2023-05-07T11:53:39.656Z,101162.73
2023-05-07T11:56:11.264Z,101163.63
2023-05-07T11:58:42.129Z,101173.05
2023-05-07T12:01:14.375Z,101165.14
2023-05-07T12:03:46.855Z,101164.75
2023-05-07T12:06:18.746Z,101173.31
2023-05-07T12:08:49.429Z,101166.81
2023-05-07T12:11:27.314Z,101163.08
2023-05-07T12:13:59.939Z,101155.44
2023-05-07T12:16:31.154Z,101169.61
2023-05-07T12:19:02.245Z,101168.81
2023-05-07T12:21:32.974Z,101159.69
2023-05-07T12:24:03.585Z,101151.08
2023-05-07T12:26:34.174Z,101153.98
2023-05-07T12:29:05.014Z,101151.35
2023-05-07T12:31:35.588Z,101151.67
2023-05-07T12:34:06.169Z,101149.27
2023-05-07T12:36:40.505Z,101159.47
2023-05-07T12:39:11.573Z,101159.27
2023-05-07T12:41:57.687Z,101159.13
2023-05-07T12:44:31.667Z,101158.61
2023-05-07T12:47:03.597Z,101158.45
2023-05-07T12:49:38.883Z,101161.52
2023-05-07T12:52:09.525Z,101162.44
2023-05-07T12:54:40.747Z,101165.55
2023-05-07T12:57:12.189Z,101162.52
2023-05-07T12:59:43.372Z,101163.89
2023-05-07T13:02:14.012Z,101165.14
2023-05-07T13:04:45.703Z,101161.27
2023-05-07T13:07:16.258Z,101161.58
2023-05-07T13:09:46.811Z,101156.90
2023-05-07T13:12:17.420Z,101159.13
2023-05-07T13:14:48.125Z,101159.05
2023-05-07T13:17:19.863Z,101154.84
2023-05-07T13:19:51.257Z,101160.91
2023-05-07T13:22:21.898Z,101161.66
2023-05-07T13:24:52.510Z,101157.80
2023-05-07T13:27:23.107Z,101161.45
2023-05-07T13:29:53.720Z,101164.34
2023-05-07T13:32:24.358Z,101164.22
2023-05-07T13:34:54.896Z,101167.52
2023-05-07T13:37:25.513Z,101161.23
2023-05-07T13:39:56.110Z,101157.41
2023-05-07T13:42:26.656Z,101151.36
2023-05-07T13:44:57.791Z,101154.57
2023-05-07T13:47:28.411Z,101158.40
2023-05-07T13:49:59.052Z,101159.54
2023-05-07T13:52:29.635Z,101158.48
2023-05-07T13:55:00.221Z,101150.88
2023-05-07T13:57:30.805Z,101145.95
2023-05-07T14:00:01.522Z,101142.89
2023-05-07T14:02:32.252Z,101139.11
2023-05-07T14:05:02.960Z,101151.08
2023-05-07T14:07:33.499Z,101147.55
2023-05-07T14:10:04.163Z,101151.39
2023-05-07T14:12:35.807Z,101153.74
2023-05-07T14:15:06.960Z,101155.82
2023-05-07T14:17:37.612Z,101151.75
2023-05-07T14:20:11.008Z,101146.69
2023-05-07T14:22:41.770Z,101145.01
2023-05-07T14:25:12.544Z,101146.13
2023-05-07T14:27:43.084Z,101146.67
2023-05-07T14:30:14.363Z,101148.33
2023-05-07T14:32:44.984Z,101150.53
2023-05-07T14:35:15.734Z,101152.66
2023-05-07T14:37:46.426Z,101161.31
2023-05-07T14:40:17.048Z,101161.06
2023-05-07T14:42:47.610Z,101162.64
2023-05-07T14:45:18.167Z,101161.71
2023-05-07T14:47:48.697Z,101162.15
2023-05-07T14:50:19.287Z,101163.89
2023-05-07T14:52:49.847Z,101163.76
2023-05-07T14:55:20.538Z,101164.88
2023-05-07T14:57:51.230Z,101164.69
2023-05-07T15:00:23.575Z,101161.83
2023-05-07T15:02:54.328Z,101161.77
2023-05-07T15:05:25.213Z,101161.64
2023-05-07T15:07:57.455Z,101165.48
2023-05-07T15:10:28.329Z,101161.62
2023-05-07T15:12:58.886Z,101165.55
2023-05-07T15:15:29.524Z,101168.88
2023-05-07T15:18:01.980Z,101168.93
2023-05-07T15:20:32.883Z,101165.98
2023-05-07T15:23:03.863Z,101169.44
2023-05-07T15:25:35.126Z,101166.32
2023-05-07T15:28:06.599Z,101167.95
2023-05-07T15:30:37.275Z,101166.80
2023-05-07T15:33:07.980Z,101164.89
2023-05-07T15:35:38.743Z,101171.98
2023-05-07T15:38:09.729Z,101171.04
2023-05-07T15:40:42.939Z,101168.90
2023-05-07T15:43:13.887Z,101170.22
2023-05-07T15:45:45.401Z,101165.02
2023-05-07T15:48:15.955Z,101173.24
2023-05-07T15:50:46.802Z,101169.48
2023-05-07T15:53:17.315Z,101178.20
2023-05-07T15:55:49.514Z,101175.47
2023-05-07T15:58:21.324Z,101180.93
2023-05-07T16:00:52.086Z,101177.64
2023-05-07T16:03:23.400Z,101181.13
2023-05-07T16:05:54.181Z,101179.02
2023-05-07T16:08:24.996Z,101181.77
2023-05-07T16:10:55.784Z,101180.55
2023-05-07T16:13:26.479Z,101188.05
2023-05-07T16:15:59.301Z,101187.02
2023-05-07T16:18:30.204Z,101184.39
2023-05-07T16:21:01.488Z,101184.16
2023-05-07T16:23:32.550Z,101183.28
2023-05-07T16:26:04.830Z,101187.13
2023-05-07T16:28:35.390Z,101184.55
2023-05-07T16:31:06.258Z,101181.59
2023-05-07T16:33:37.113Z,101186.02
2023-05-07T16:36:08.183Z,101183.15
2023-05-07T16:38:38.773Z,101182.09
2023-05-07T16:41:09.358Z,101180.52
2023-05-07T16:43:39.929Z,101182.15
2023-05-07T16:46:10.578Z,101183.93
2023-05-07T16:48:41.326Z,101185.02
2023-05-07T16:51:11.907Z,101184.39
2023-05-07T16:53:42.481Z,101183.45
2023-05-07T16:56:13.088Z,101188.88
2023-05-07T16:58:43.569Z,101188.75
2023-05-07T17:01:15.439Z,101188.73
2023-05-07T17:03:46.476Z,101193.14
2023-05-07T17:06:17.130Z,101186.16
2023-05-07T17:08:47.648Z,101189.42
2023-05-07T17:11:18.285Z,101188.02
2023-05-07T17:13:48.926Z,101190.33
2023-05-07T17:16:19.626Z,101190.16
2023-05-07T17:18:50.328Z,101196.95
2023-05-07T17:21:20.929Z,101192.58
2023-05-07T17:23:51.534Z,101196.77
2023-05-07T17:26:22.464Z,101195.09
2023-05-07T17:28:53.023Z,101198.36
2023-05-07T17:31:24.303Z,101203.06
2023-05-07T17:33:55.431Z,101206.34
2023-05-07T17:36:26.088Z,101216.62
2023-05-07T17:38:56.686Z,101216.06
2023-05-07T17:41:27.325Z,101216.46
2023-05-07T17:43:57.923Z,101223.21
2023-05-07T17:46:28.577Z,101224.14
2023-05-07T17:48:59.089Z,101226.42
2023-05-07T17:51:36.073Z,101224.78
2023-05-07T17:54:13.045Z,101228.04
2023-05-07T17:56:43.858Z,101230.33
2023-05-07T17:59:14.450Z,101235.15
2023-05-07T18:01:45.366Z,101234.61
2023-05-07T18:04:15.995Z,101239.17
2023-05-07T18:06:46.543Z,101237.48
2023-05-07T18:09:17.110Z,101235.45
2023-05-07T18:11:47.666Z,101243.70
2023-05-07T18:14:18.209Z,101242.36
2023-05-07T18:16:48.783Z,101247.58
2023-05-07T18:19:19.274Z,101248.96
2023-05-07T18:21:49.845Z,101252.06
2023-05-07T18:24:20.814Z,101253.89
2023-05-07T18:26:51.382Z,101257.44
2023-05-07T18:29:21.960Z,101257.23
2023-05-07T18:31:52.842Z,101258.84
2023-05-07T18:34:23.419Z,101265.30
2023-05-07T18:36:53.938Z,101267.42
2023-05-07T18:39:24.524Z,101270.92
2023-05-07T18:41:55.266Z,101273.80
2023-05-07T18:44:25.879Z,101275.08
2023-05-07T18:46:59.568Z,101283.08
2023-05-07T18:49:30.299Z,101281.88
2023-05-07T18:52:01.058Z,101281.95
2023-05-07T18:54:31.624Z,101289.50
2023-05-07T18:57:02.206Z,101293.27
2023-05-07T18:59:32.836Z,101292.76
2023-05-07T19:02:03.728Z,101293.33
2023-05-07T19:04:34.337Z,101297.51
2023-05-07T19:07:04.891Z,101298.61
2023-05-07T19:09:35.442Z,101308.71
2023-05-07T19:12:06.769Z,101313.55
2023-05-07T19:14:37.588Z,101316.17
2023-05-07T19:17:08.149Z,101322.74
2023-05-07T19:19:38.769Z,101321.54
2023-05-07T19:22:09.403Z,101328.11
2023-05-07T19:24:41.020Z,101334.48
2023-05-07T19:27:11.511Z,101335.07
2023-05-07T19:29:44.342Z,101340.29
2023-05-07T19:32:15.044Z,101354.68
2023-05-07T19:34:45.649Z,101351.60
2023-05-07T19:37:16.353Z,101356.44
2023-05-07T19:39:47.351Z,101358.16
2023-05-07T19:42:18.005Z,101357.70
2023-05-07T19:44:48.554Z,101359.88
2023-05-07T19:47:19.079Z,101362.64
2023-05-07T19:49:50.496Z,101362.71
2023-05-07T19:52:21.221Z,101365.56
2023-05-07T19:54:51.761Z,101363.67
2023-05-07T19:57:22.262Z,101363.23
2023-05-07T19:59:52.720Z,101363.48
2023-05-07T20:02:23.416Z,101365.56
2023-05-07T20:04:55.262Z,101370.95
2023-05-07T20:07:25.876Z,101375.38
2023-05-07T20:09:56.474Z,101377.18
2023-05-07T20:12:27.038Z,101381.42
2023-05-07T20:14:57.605Z,101381.84
2023-05-07T20:17:28.244Z,101381.55
2023-05-07T20:19:58.909Z,101381.85
2023-05-07T20:22:32.337Z,101385.85
2023-05-07T20:25:05.899Z,101391.91
2023-05-07T20:27:39.762Z,101397.29
2023-05-07T20:30:11.766Z,101398.45
2023-05-07T20:32:43.606Z,101398.45
2023-05-07T20:35:14.265Z,101406.41
2023-05-07T20:37:44.721Z,101406.98
2023-05-07T20:40:15.597Z,101411.27
2023-05-07T20:42:46.306Z,101413.46
2023-05-07T20:45:17.259Z,101410.84
2023-05-07T20:47:48.009Z,101411.79
2023-05-07T20:50:18.571Z,101408.73
2023-05-07T20:52:49.128Z,101413.23
2023-05-07T20:55:19.713Z,101418.39
2023-05-07T20:57:50.330Z,101415.79
2023-05-07T21:00:21.304Z,101418.48
2023-05-07T21:02:51.962Z,101417.79
2023-05-07T21:05:22.830Z,101418.15
2023-05-07T21:07:53.402Z,101415.95
2023-05-07T21:10:23.955Z,101413.45
2023-05-07T21:12:54.589Z,101415.96
2023-05-07T21:15:25.867Z,101419.40
2023-05-07T21:17:56.430Z,101426.43
2023-05-07T21:20:27.110Z,101428.96
2023-05-07T21:22:57.738Z,101431.92
2023-05-07T21:25:28.325Z,101434.83
2023-05-07T21:27:58.974Z,101434.38
2023-05-07T21:30:29.583Z,101436.16
2023-05-07T21:33:00.173Z,101435.98
2023-05-07T21:35:30.783Z,101440.29
2023-05-07T21:38:02.735Z,101445.23
2023-05-07T21:40:33.337Z,101447.70
2023-05-07T21:43:03.904Z,101452.10
2023-05-07T21:45:34.430Z,101455.82
2023-05-07T21:48:05.124Z,101456.83
2023-05-07T21:50:35.931Z,101456.48
2023-05-07T21:53:06.552Z,101459.87
2023-05-07T21:55:37.023Z,101465.19
2023-05-07T21:58:07.568Z,101464.35
2023-05-07T22:00:38.443Z,101466.66
2023-05-07T22:03:09.112Z,101465.95
2023-05-07T22:05:39.935Z,101468.96
2023-05-07T22:08:10.863Z,101468.96
2023-05-07T22:10:41.409Z,101470.75
2023-05-07T22:13:12.336Z,101470.33
2023-05-07T22:15:56.098Z,101473.48
2023-05-07T22:18:28.370Z,101473.10
2023-05-07T22:20:58.929Z,101479.42
2023-05-07T22:23:29.516Z,101477.92
2023-05-07T22:26:00.118Z,101480.59
2023-05-07T22:28:30.620Z,101475.06
2023-05-07T22:31:01.133Z,101473.62
2023-05-07T22:33:31.884Z,101473.04
2023-05-07T22:36:02.433Z,101472.33
2023-05-07T22:38:33.688Z,101471.34
2023-05-07T22:41:04.552Z,101473.38
2023-05-07T22:43:35.315Z,101475.11
2023-05-07T22:46:06.032Z,101478.36
2023-05-07T22:48:36.678Z,101476.29
2023-05-07T22:51:07.248Z,101476.98
2023-05-07T22:53:37.768Z,101475.38
2023-05-07T22:56:10.291Z,101475.23
2023-05-07T22:58:40.856Z,101474.30
2023-05-07T23:01:14.952Z,101470.11
2023-05-07T23:03:45.572Z,101470.59
2023-05-07T23:06:16.136Z,101468.89
2023-05-07T23:08:46.688Z,101473.25
2023-05-07T23:11:17.213Z,101474.73
2023-05-07T23:13:47.787Z,101476.73
2023-05-07T23:16:18.354Z,101475.00
2023-05-07T23:18:49.330Z,101475.86
2023-05-07T23:21:19.914Z,101480.30
2023-05-07T23:23:50.808Z,101486.07
2023-05-07T23:26:21.335Z,101486.11
2023-05-07T23:28:51.961Z,101484.67
2023-05-07T23:31:22.529Z,101482.77
2023-05-07T23:33:53.091Z,101480.36
2023-05-07T23:36:23.796Z,101483.87
2023-05-07T23:38:54.344Z,101486.35
2023-05-07T23:41:24.921Z,101492.95
2023-05-07T23:43:55.494Z,101496.52
2023-05-07T23:46:27.020Z,101499.96
2023-05-07T23:48:57.619Z,101498.11
2023-05-07T23:51:28.163Z,101500.11
2023-05-07T23:53:58.686Z,101496.86
2023-05-07T23:56:29.201Z,101500.52
2023-05-07T23:58:59.813Z,101496.45
